sensor_id;sensor_type;location;lat;lon;timestamp;temperature;humidity
20162;DHT22;51382;53.180;15.414;2023-03-16T00:13:05;0.40;99.90
20162;DHT22;51382;53.180;15.414;2023-03-16T00:28:16;0.40;99.90
20162;DHT22;51382;53.180;15.414;2023-03-16T00:43:29;0.40;99.90
20162;DHT22;51382;53.180;15.414;2023-03-16T00:58:50;0.30;99.90
20162;DHT22;51382;53.180;15.414;2023-03-16T01:14:04;0.20;99.90
20162;DHT22;51382;53.180;15.414;2023-03-16T01:29:10;0.20;99.90
20162;DHT22;51382;53.180;15.414;2023-03-16T01:44:24;0.10;99.90
20162;DHT22;51382;53.180;15.414;2023-03-16T01:59:37;-0.10;99.90
20162;DHT22;51382;53.180;15.414;2023-03-16T02:14:47;0.00;99.90
20162;DHT22;51382;53.180;15.414;2023-03-16T02:30:00;0.00;99.90
20162;DHT22;51382;53.180;15.414;2023-03-16T02:45:17;-0.10;99.90
20162;DHT22;51382;53.180;15.414;2023-03-16T03:00:29;-0.20;99.90
20162;DHT22;51382;53.180;15.414;2023-03-16T03:15:40;-0.20;99.90
20162;DHT22;51382;53.180;15.414;2023-03-16T03:30:54;0.10;99.90
20162;DHT22;51382;53.180;15.414;2023-03-16T03:46:06;0.10;99.90
20162;DHT22;51382;53.180;15.414;2023-03-16T04:01:17;0.20;99.90
20162;DHT22;51382;53.180;15.414;2023-03-16T04:16:28;0.20;99.90
20162;DHT22;51382;53.180;15.414;2023-03-16T04:31:42;0.10;99.90
20162;DHT22;51382;53.180;15.414;2023-03-16T04:46:54;0.10;99.90
20162;DHT22;51382;53.180;15.414;2023-03-16T05:02:11;0.00;99.90
20162;DHT22;51382;53.180;15.414;2023-03-16T05:17:19;0.10;99.90
20162;DHT22;51382;53.180;15.414;2023-03-16T05:32:31;0.10;99.90
20162;DHT22;51382;53.180;15.414;2023-03-16T05:47:42;0.70;99.90
20162;DHT22;51382;53.180;15.414;2023-03-16T06:02:54;1.00;99.90
20162;DHT22;51382;53.180;15.414;2023-03-16T06:18:04;1.50;99.90
20162;DHT22;51382;53.180;15.414;2023-03-16T06:33:16;1.60;99.90
20162;DHT22;51382;53.180;15.414;2023-03-16T06:48:28;2.20;99.90
20162;DHT22;51382;53.180;15.414;2023-03-16T07:03:39;2.20;99.90
20162;DHT22;51382;53.180;15.414;2023-03-16T07:19:02;2.30;99.90
20162;DHT22;51382;53.180;15.414;2023-03-16T07:34:14;3.10;99.90
20162;DHT22;51382;53.180;15.414;2023-03-16T07:49:23;3.60;99.90
20162;DHT22;51382;53.180;15.414;2023-03-16T08:04:35;3.60;99.90
20162;DHT22;51382;53.180;15.414;2023-03-16T08:19:50;6.60;99.90
20162;DHT22;51382;53.180;15.414;2023-03-16T08:35:02;8.30;99.90
20162;DHT22;51382;53.180;15.414;2023-03-16T08:50:26;7.00;99.90
20162;DHT22;51382;53.180;15.414;2023-03-16T09:05:37;11.70;99.90
20162;DHT22;51382;53.180;15.414;2023-03-16T09:20:44;11.40;99.90
20162;DHT22;51382;53.180;15.414;2023-03-16T09:35:51;5.20;99.90
20162;DHT22;51382;53.180;15.414;2023-03-16T09:50:58;5.10;99.90
20162;DHT22;51382;53.180;15.414;2023-03-16T10:06:12;8.50;99.90
20162;DHT22;51382;53.180;15.414;2023-03-16T10:21:23;6.40;99.90
20162;DHT22;51382;53.180;15.414;2023-03-16T10:36:37;7.90;99.90
20162;DHT22;51382;53.180;15.414;2023-03-16T10:51:50;7.10;99.90
20162;DHT22;51382;53.180;15.414;2023-03-16T11:07:05;7.20;99.90
20162;DHT22;51382;53.180;15.414;2023-03-16T11:22:14;6.40;99.90
20162;DHT22;51382;53.180;15.414;2023-03-16T11:37:34;6.40;99.90
20162;DHT22;51382;53.180;15.414;2023-03-16T11:52:57;6.50;99.90
20162;DHT22;51382;53.180;15.414;2023-03-16T12:08:12;6.40;99.90
20162;DHT22;51382;53.180;15.414;2023-03-16T12:23:29;6.80;99.90
20162;DHT22;51382;53.180;15.414;2023-03-16T12:38:44;6.60;99.90
20162;DHT22;51382;53.180;15.414;2023-03-16T12:54:00;6.70;99.00
20162;DHT22;51382;53.180;15.414;2023-03-16T13:09:26;6.70;99.90
20162;DHT22;51382;53.180;15.414;2023-03-16T13:24:48;6.80;99.50
20162;DHT22;51382;53.180;15.414;2023-03-16T13:40:01;6.70;96.80
20162;DHT22;51382;53.180;15.414;2023-03-16T13:55:28;6.80;97.60
20162;DHT22;51382;53.180;15.414;2023-03-16T14:10:41;6.60;95.40
20162;DHT22;51382;53.180;15.414;2023-03-16T14:25:53;6.70;95.90
20162;DHT22;51382;53.180;15.414;2023-03-16T14:41:09;6.80;92.10
20162;DHT22;51382;53.180;15.414;2023-03-16T14:56:31;6.60;92.10
20162;DHT22;51382;53.180;15.414;2023-03-16T15:11:43;6.60;93.00
20162;DHT22;51382;53.180;15.414;2023-03-16T15:26:54;6.40;91.60
20162;DHT22;51382;53.180;15.414;2023-03-16T15:42:08;6.40;91.00
20162;DHT22;51382;53.180;15.414;2023-03-16T15:57:23;6.20;90.60
20162;DHT22;51382;53.180;15.414;2023-03-16T16:12:35;6.00;91.60
20162;DHT22;51382;53.180;15.414;2023-03-16T16:27:47;6.10;92.20
20162;DHT22;51382;53.180;15.414;2023-03-16T16:42:59;5.60;92.90
20162;DHT22;51382;53.180;15.414;2023-03-16T16:58:15;5.10;93.70
20162;DHT22;51382;53.180;15.414;2023-03-16T17:13:28;4.70;94.90
20162;DHT22;51382;53.180;15.414;2023-03-16T17:28:46;2.90;99.90
20162;DHT22;51382;53.180;15.414;2023-03-16T17:44:03;2.90;99.90
20162;DHT22;51382;53.180;15.414;2023-03-16T17:59:20;2.10;99.90
20162;DHT22;51382;53.180;15.414;2023-03-16T18:14:32;2.20;99.90
20162;DHT22;51382;53.180;15.414;2023-03-16T18:29:46;2.40;99.90
20162;DHT22;51382;53.180;15.414;2023-03-16T18:44:59;2.10;99.90
20162;DHT22;51382;53.180;15.414;2023-03-16T19:00:15;2.00;99.90
20162;DHT22;51382;53.180;15.414;2023-03-16T19:15:28;1.70;99.90
20162;DHT22;51382;53.180;15.414;2023-03-16T19:30:41;1.20;99.90
20162;DHT22;51382;53.180;15.414;2023-03-16T19:45:49;0.90;99.90
20162;DHT22;51382;53.180;15.414;2023-03-16T20:01:02;0.90;99.90
20162;DHT22;51382;53.180;15.414;2023-03-16T20:16:16;0.70;99.90
20162;DHT22;51382;53.180;15.414;2023-03-16T20:31:34;1.40;99.90
20162;DHT22;51382;53.180;15.414;2023-03-16T20:46:45;1.60;99.90
20162;DHT22;51382;53.180;15.414;2023-03-16T21:01:56;1.60;99.90
20162;DHT22;51382;53.180;15.414;2023-03-16T21:17:10;1.70;99.90
20162;DHT22;51382;53.180;15.414;2023-03-16T21:32:31;1.60;99.90
20162;DHT22;51382;53.180;15.414;2023-03-16T21:47:43;1.70;99.90
20162;DHT22;51382;53.180;15.414;2023-03-16T22:02:56;2.00;99.90
20162;DHT22;51382;53.180;15.414;2023-03-16T22:18:19;2.00;99.90
20162;DHT22;51382;53.180;15.414;2023-03-16T22:33:37;1.90;99.90
20162;DHT22;51382;53.180;15.414;2023-03-16T22:48:50;2.00;99.90
20162;DHT22;51382;53.180;15.414;2023-03-16T23:04:02;1.90;99.90
20162;DHT22;51382;53.180;15.414;2023-03-16T23:19:22;2.30;99.90
20162;DHT22;51382;53.180;15.414;2023-03-16T23:34:37;2.60;99.90
20162;DHT22;51382;53.180;15.414;2023-03-16T23:49:48;2.70;99.90
